createdAt,value
2022-11-04T00:01:43.272Z,10.13
2022-11-04T00:04:13.324Z,10.13
2022-11-04T00:06:41.471Z,10.14
2022-11-04T00:09:13.229Z,10.15
2022-11-04T00:11:59.559Z,10.16
2022-11-04T00:14:31.198Z,10.15
2022-11-04T00:17:17.879Z,10.16
2022-11-04T00:20:12.699Z,10.16
2022-11-04T00:23:00.946Z,10.15
2022-11-04T00:25:46.952Z,10.14
2022-11-04T00:28:36.691Z,10.14
2022-11-04T00:31:26.814Z,10.15
2022-11-04T00:33:57.542Z,10.17
2022-11-04T00:36:25.739Z,10.18
2022-11-04T00:38:53.565Z,10.20
2022-11-04T00:41:27.743Z,10.23
2022-11-04T00:44:04.857Z,10.26
2022-11-04T00:46:33.679Z,10.27
2022-11-04T00:49:01.552Z,10.27
2022-11-04T00:51:29.183Z,10.26
2022-11-04T00:53:57.746Z,10.27
2022-11-04T00:56:25.468Z,10.27
2022-11-04T00:58:52.994Z,10.27
2022-11-04T01:01:21.539Z,10.28
2022-11-04T01:03:51.932Z,10.29
2022-11-04T01:06:22.296Z,10.31
2022-11-04T01:09:00.826Z,10.30
2022-11-04T01:11:28.950Z,10.26
2022-11-04T01:13:57.950Z,10.23
2022-11-04T01:18:55.894Z,10.17
2022-11-04T01:21:23.458Z,10.15
2022-11-04T01:23:51.002Z,10.14
2022-11-04T01:26:22.902Z,10.13
2022-11-04T01:28:54.100Z,10.11
2022-11-04T01:31:26.262Z,10.10
2022-11-04T01:33:55.346Z,10.07
2022-11-04T01:36:24.069Z,10.05
2022-11-04T01:38:53.590Z,10.02
2022-11-04T01:41:27.402Z,9.99
2022-11-04T01:44:02.145Z,9.96
2022-11-04T01:46:53.496Z,9.95
2022-11-04T01:49:32.945Z,9.94
2022-11-04T01:52:14.420Z,9.93
2022-11-04T01:54:47.178Z,9.93
2022-11-04T01:57:24.740Z,9.93
2022-11-04T01:59:53.024Z,9.94
2022-11-04T02:02:25.592Z,9.95
2022-11-04T02:04:53.403Z,9.95
2022-11-04T02:07:21.369Z,9.93
2022-11-04T02:09:48.933Z,9.92
2022-11-04T02:12:35.051Z,9.91
2022-11-04T02:15:02.947Z,9.90
2022-11-04T02:17:48.526Z,9.90
2022-11-04T02:20:29.389Z,9.89
2022-11-04T02:23:40.953Z,9.88
2022-11-04T02:26:46.361Z,9.86
2022-11-04T02:29:25.792Z,9.86
2022-11-04T02:32:23.432Z,9.86
2022-11-04T02:35:17.277Z,9.85
2022-11-04T02:38:08.882Z,9.84
2022-11-04T02:40:51.694Z,9.82
2022-11-04T02:43:26.340Z,9.80
2022-11-04T02:46:05.091Z,9.82
2022-11-04T02:48:46.953Z,9.84
2022-11-04T02:51:39.397Z,9.83
2022-11-04T02:54:32.796Z,9.81
2022-11-04T02:57:03.980Z,9.82
2022-11-04T02:59:39.441Z,9.85
2022-11-04T03:02:13.233Z,9.87
2022-11-04T03:04:46.905Z,9.88
2022-11-04T03:07:21.472Z,9.89
2022-11-04T03:09:55.586Z,9.89
2022-11-04T03:12:29.689Z,9.88
2022-11-04T03:15:04.826Z,9.88
2022-11-04T03:17:56.762Z,9.88
2022-11-04T03:20:28.635Z,9.88
2022-11-04T03:22:59.461Z,9.88
2022-11-04T03:25:35.717Z,9.90
2022-11-04T03:28:21.199Z,9.91
2022-11-04T03:30:53.926Z,9.90
2022-11-04T03:33:26.969Z,9.92
2022-11-04T03:35:54.735Z,9.92
2022-11-04T03:38:22.814Z,9.93
2022-11-04T03:40:51.099Z,9.93
2022-11-04T03:43:27.211Z,9.92
2022-11-04T03:45:55.138Z,9.92
2022-11-04T03:48:23.887Z,9.94
2022-11-04T03:50:51.411Z,9.97
2022-11-04T03:53:27.296Z,10.01
2022-11-04T03:56:24.616Z,10.02
2022-11-04T03:59:03.958Z,10.01
2022-11-04T04:02:02.462Z,10.02
2022-11-04T04:04:39.553Z,10.00
2022-11-04T04:07:17.152Z,9.97
2022-11-04T04:10:30.066Z,9.98
2022-11-04T04:13:05.117Z,9.94
2022-11-04T04:16:07.124Z,9.94
2022-11-04T04:18:54.030Z,9.93
2022-11-04T04:21:44.730Z,9.94
2022-11-04T04:24:35.149Z,9.94
2022-11-04T04:27:22.155Z,9.91
2022-11-04T04:29:51.822Z,9.89
2022-11-04T04:32:23.875Z,9.88
2022-11-04T04:35:11.751Z,9.84
2022-11-04T04:37:41.542Z,9.80
2022-11-04T04:40:34.114Z,9.78
2022-11-04T04:43:21.697Z,9.74
2022-11-04T04:45:53.356Z,9.74
2022-11-04T04:48:20.998Z,9.75
2022-11-04T04:50:56.256Z,9.75
2022-11-04T04:53:23.907Z,9.73
2022-11-04T04:55:51.484Z,9.73
2022-11-04T04:58:19.120Z,9.74
2022-11-04T05:00:46.786Z,9.74
2022-11-04T05:03:14.412Z,9.73
2022-11-04T05:05:41.899Z,9.72
2022-11-04T05:08:09.715Z,9.69
2022-11-04T05:10:37.557Z,9.67
2022-11-04T05:13:23.738Z,9.66
2022-11-04T05:15:52.937Z,9.64
2022-11-04T05:18:20.522Z,9.68
2022-11-04T05:20:48.154Z,9.71
2022-11-04T05:23:15.844Z,9.74
2022-11-04T05:25:43.575Z,9.78
2022-11-04T05:28:11.521Z,9.82
2022-11-04T05:30:39.512Z,9.85
2022-11-04T05:33:07.453Z,9.90
2022-11-04T05:35:35.477Z,9.94
2022-11-04T05:38:03.126Z,9.98
2022-11-04T05:40:30.888Z,10.01
2022-11-04T05:42:59.939Z,10.05
2022-11-04T05:45:29.032Z,10.09
2022-11-04T05:48:04.939Z,10.11
2022-11-04T05:50:33.959Z,10.14
2022-11-04T05:53:01.574Z,10.17
2022-11-04T05:55:31.938Z,10.20
2022-11-04T05:57:59.524Z,10.23
2022-11-04T06:00:28.469Z,10.24
2022-11-04T06:02:58.929Z,10.28
2022-11-04T06:05:28.098Z,10.33
2022-11-04T06:07:56.342Z,10.34
2022-11-04T06:10:25.244Z,10.37
2022-11-04T06:12:53.636Z,10.41
2022-11-04T06:15:21.383Z,10.45
2022-11-04T06:17:49.173Z,10.52
2022-11-04T06:20:16.905Z,10.58
2022-11-04T06:22:44.616Z,10.63
2022-11-04T06:25:12.491Z,10.68
2022-11-04T06:27:40.824Z,10.75
2022-11-04T06:30:12.400Z,10.78
2022-11-04T06:32:42.090Z,10.78
2022-11-04T06:35:09.885Z,10.82
2022-11-04T06:37:37.422Z,10.86
2022-11-04T06:40:06.644Z,10.91
2022-11-04T06:42:34.274Z,10.98
2022-11-04T06:45:02.053Z,11.03
2022-11-04T06:47:29.835Z,11.08
2022-11-04T06:49:57.689Z,11.11
2022-11-04T06:52:25.445Z,11.12
2022-11-04T06:54:53.114Z,11.13
2022-11-04T06:57:21.083Z,11.15
2022-11-04T06:59:48.595Z,11.18
2022-11-04T07:02:16.339Z,11.22
2022-11-04T07:04:44.142Z,11.27
2022-11-04T07:07:12.191Z,11.32
2022-11-04T07:09:41.125Z,11.37
2022-11-04T07:12:08.945Z,11.39
2022-11-04T07:14:36.514Z,11.38
2022-11-04T07:17:04.230Z,11.37
2022-11-04T07:19:31.825Z,11.36
2022-11-04T07:21:59.631Z,11.37
2022-11-04T07:24:27.193Z,11.38
2022-11-04T07:26:55.843Z,11.41
2022-11-04T07:29:24.910Z,11.43
2022-11-04T07:31:52.632Z,11.44
2022-11-04T07:34:20.466Z,11.42
2022-11-04T07:36:48.229Z,11.41
2022-11-04T07:39:15.927Z,11.42
2022-11-04T07:41:46.767Z,11.42
2022-11-04T07:44:14.431Z,11.42
2022-11-04T07:46:42.264Z,11.43
2022-11-04T07:49:10.688Z,11.45
2022-11-04T07:51:38.310Z,11.44
2022-11-04T07:54:06.066Z,11.40
2022-11-04T07:56:34.740Z,11.34
2022-11-04T07:59:06.684Z,11.29
2022-11-04T08:01:34.344Z,11.23
2022-11-04T08:04:02.291Z,11.10
2022-11-04T08:06:31.603Z,11.06
2022-11-04T08:09:00.678Z,11.05
2022-11-04T08:11:28.476Z,11.07
2022-11-04T08:14:00.965Z,11.12
2022-11-04T08:16:36.570Z,11.16
2022-11-04T08:19:07.176Z,11.23
2022-11-04T08:21:35.049Z,11.28
2022-11-04T08:24:03.830Z,11.33
2022-11-04T08:26:32.039Z,11.39
2022-11-04T08:29:02.087Z,11.43
2022-11-04T08:31:37.591Z,11.45
2022-11-04T08:34:11.441Z,11.36
2022-11-04T08:36:40.465Z,11.35
2022-11-04T08:39:13.037Z,11.34
2022-11-04T08:41:45.119Z,11.32
2022-11-04T08:44:16.490Z,11.32
2022-11-04T08:46:46.100Z,11.33
2022-11-04T08:49:21.103Z,11.33
2022-11-04T08:51:56.929Z,11.33
2022-11-04T08:54:26.723Z,11.35
2022-11-04T08:56:55.554Z,11.39
2022-11-04T08:59:44.206Z,11.42
2022-11-04T09:02:33.665Z,11.42
2022-11-04T09:05:01.682Z,11.47
2022-11-04T09:07:29.812Z,11.50
2022-11-04T09:09:57.867Z,11.52
2022-11-04T09:12:28.171Z,11.50
2022-11-04T09:14:56.212Z,11.45
2022-11-04T09:17:24.925Z,11.42
2022-11-04T09:19:53.213Z,11.42
2022-11-04T09:22:21.207Z,11.40
2022-11-04T09:24:51.125Z,11.40
2022-11-04T09:27:19.507Z,11.38
2022-11-04T09:29:47.653Z,11.35
2022-11-04T09:32:15.930Z,11.39
2022-11-04T09:34:44.528Z,11.45
2022-11-04T09:37:18.027Z,11.50
2022-11-04T09:39:51.378Z,11.53
2022-11-04T09:42:52.792Z,11.50
2022-11-04T09:45:27.865Z,11.48
2022-11-04T09:48:08.073Z,11.51
2022-11-04T09:50:53.830Z,11.54
2022-11-04T09:53:43.760Z,11.54
2022-11-04T09:56:25.358Z,11.53
2022-11-04T09:58:54.109Z,11.49
2022-11-04T10:01:58.697Z,11.46
2022-11-04T10:04:37.049Z,11.41
2022-11-04T10:07:37.237Z,11.40
2022-11-04T10:10:41.569Z,11.39
2022-11-04T10:14:03.915Z,11.41
2022-11-04T10:17:34.106Z,11.47
2022-11-04T10:20:56.038Z,11.48
2022-11-04T10:24:15.229Z,11.45
2022-11-04T10:27:05.168Z,11.47
2022-11-04T10:29:55.912Z,11.48
2022-11-04T10:33:15.262Z,11.51
2022-11-04T10:36:05.882Z,11.55
2022-11-04T10:39:35.095Z,11.57
2022-11-04T10:42:51.806Z,11.57
2022-11-04T10:45:47.754Z,11.60
2022-11-04T10:48:33.206Z,11.60
2022-11-04T10:51:23.647Z,11.63
2022-11-04T10:54:13.791Z,11.64
2022-11-04T10:57:01.216Z,11.65
2022-11-04T10:59:58.520Z,11.72
2022-11-04T11:02:48.689Z,11.78
2022-11-04T11:05:28.413Z,11.79
2022-11-04T11:10:13.913Z,11.82
2022-11-04T11:12:06.927Z,11.78
2022-11-04T11:15:48.906Z,11.76
2022-11-04T11:18:28.248Z,11.78
2022-11-04T11:21:11.528Z,11.80
2022-11-04T11:23:57.231Z,11.81
2022-11-04T11:26:41.518Z,11.85
2022-11-04T11:29:21.378Z,11.87
2022-11-04T11:32:07.923Z,11.90
2022-11-04T11:34:38.743Z,11.91
2022-11-04T11:37:30.464Z,11.93
2022-11-04T11:40:05.511Z,11.91
2022-11-04T11:42:56.193Z,11.89
2022-11-04T11:45:59.224Z,11.88
2022-11-04T11:49:13.664Z,11.96
2022-11-04T11:52:05.562Z,12.03
2022-11-04T11:54:49.737Z,12.08
2022-11-04T12:46:19.048Z,13.04
2022-11-04T12:49:44.962Z,12.84
2022-11-04T13:07:20.477Z,12.63
2022-11-04T13:33:15.602Z,12.76
2022-11-04T13:36:26.907Z,12.74
2022-11-04T13:39:06.133Z,12.73
2022-11-04T13:41:53.657Z,12.74
2022-11-04T13:44:52.902Z,12.76
2022-11-04T13:48:22.429Z,12.78
2022-11-04T13:51:10.378Z,12.78
2022-11-04T13:53:58.045Z,12.80
2022-11-04T13:56:34.305Z,12.81
2022-11-04T13:59:24.275Z,12.79
2022-11-04T14:03:04.348Z,12.77
2022-11-04T14:06:17.615Z,12.72
2022-11-04T14:10:05.190Z,12.73
2022-11-04T14:13:35.079Z,12.74
2022-11-04T14:16:14.013Z,12.80
2022-11-04T14:18:46.008Z,12.84
2022-11-04T14:21:23.506Z,12.88
2022-11-04T14:24:16.249Z,12.88
2022-11-04T14:26:48.790Z,12.85
2022-11-04T14:29:18.825Z,12.83
2022-11-04T14:31:52.625Z,12.76
2022-11-04T14:34:36.752Z,12.77
2022-11-04T14:37:27.005Z,12.77
2022-11-04T14:40:01.743Z,12.74
2022-11-04T14:42:55.193Z,12.75
2022-11-04T14:45:27.111Z,12.74
2022-11-04T14:48:20.575Z,12.72
2022-11-04T14:50:56.146Z,12.67
2022-11-04T14:53:38.230Z,12.66
2022-11-04T14:56:24.359Z,12.63
2022-11-04T14:59:33.458Z,12.52
2022-11-04T15:02:56.108Z,12.49
2022-11-04T15:05:32.168Z,12.47
2022-11-04T15:08:30.891Z,12.50
2022-11-04T15:11:17.694Z,12.48
2022-11-04T15:13:57.969Z,12.49
2022-11-04T15:16:30.538Z,12.48
2022-11-04T15:19:00.217Z,12.45
2022-11-04T15:21:29.514Z,12.42
2022-11-04T15:24:13.517Z,12.39
2022-11-04T15:26:43.983Z,12.37
2022-11-04T15:29:17.313Z,12.34
2022-11-04T15:32:05.540Z,12.32
2022-11-04T15:34:36.870Z,12.29
2022-11-04T15:37:14.283Z,12.29
2022-11-04T15:39:47.131Z,12.27
2022-11-04T15:42:46.031Z,12.25
2022-11-04T15:45:27.494Z,12.20
2022-11-04T15:48:38.142Z,12.19
2022-11-04T15:51:25.506Z,12.16
2022-11-04T15:54:05.502Z,12.16
2022-11-04T15:56:46.247Z,12.14
2022-11-04T15:59:20.432Z,12.14
2022-11-04T16:01:52.839Z,12.14
2022-11-04T16:04:38.198Z,12.17
2022-11-04T16:07:10.541Z,12.19
2022-11-04T16:09:56.564Z,12.25
2022-11-04T16:12:37.343Z,12.22
2022-11-04T16:15:27.619Z,12.20
2022-11-04T16:18:00.463Z,12.19
2022-11-04T16:20:31.594Z,12.23
2022-11-04T16:23:03.161Z,12.25
2022-11-04T16:25:42.548Z,12.26
2022-11-04T16:28:43.037Z,12.25
2022-11-04T16:31:41.447Z,12.26
2022-11-04T16:34:14.354Z,12.22
2022-11-04T16:36:44.458Z,12.19
2022-11-04T16:39:16.621Z,12.21
2022-11-04T16:41:55.257Z,12.10
2022-11-04T16:47:44.624Z,12.10
2022-11-04T16:50:30.284Z,12.02
2022-11-04T16:53:03.990Z,12.00
2022-11-04T16:55:41.892Z,12.01
2022-11-04T16:58:18.243Z,12.00
2022-11-04T17:01:05.128Z,12.00
2022-11-04T17:03:58.555Z,11.96
2022-11-04T17:06:27.556Z,11.95
2022-11-04T17:08:58.846Z,11.94
2022-11-04T17:11:30.471Z,11.93
2022-11-04T17:14:34.660Z,11.93
2022-11-04T17:17:31.858Z,11.88
2022-11-04T17:20:17.811Z,11.83
2022-11-04T17:22:51.142Z,11.81
2022-11-04T17:25:25.807Z,11.82
2022-11-04T17:27:55.541Z,11.79
2022-11-04T17:30:25.420Z,11.79
2022-11-04T17:32:54.417Z,11.80
2022-11-04T17:35:23.438Z,11.79
2022-11-04T17:37:54.541Z,11.77
2022-11-04T17:40:24.313Z,11.74
2022-11-04T17:43:12.734Z,11.72
2022-11-04T17:45:43.481Z,11.64
2022-11-04T17:48:14.404Z,11.61
2022-11-04T17:50:43.548Z,11.58
2022-11-04T17:53:22.291Z,11.55
2022-11-04T17:55:54.131Z,11.51
2022-11-04T17:58:26.901Z,11.46
2022-11-04T18:01:06.059Z,11.43
2022-11-04T18:03:46.421Z,11.38
2022-11-04T18:06:41.536Z,11.33
2022-11-04T18:09:24.870Z,11.31
2022-11-04T18:12:13.758Z,11.30
2022-11-04T18:14:48.369Z,11.32
2022-11-04T18:17:18.116Z,11.30
2022-11-04T18:19:53.673Z,11.28
2022-11-04T18:22:30.276Z,11.25
2022-11-04T18:25:07.628Z,11.20
2022-11-04T18:27:44.544Z,11.21
2022-11-04T18:30:58.686Z,11.17
2022-11-04T18:33:38.756Z,11.12
2022-11-04T18:36:16.021Z,11.11
2022-11-04T18:39:13.157Z,11.10
2022-11-04T18:41:46.223Z,11.08
2022-11-04T18:52:50.705Z,10.98
2022-11-04T18:55:44.562Z,10.97
2022-11-04T18:58:18.878Z,10.98
2022-11-04T19:01:09.132Z,11.00
2022-11-04T19:03:59.517Z,11.03
2022-11-04T19:06:43.526Z,11.03
2022-11-04T19:15:45.316Z,10.99
2022-11-04T19:19:02.169Z,10.99
2022-11-04T19:26:37.822Z,10.94
2022-11-04T19:34:41.728Z,10.86
2022-11-04T19:37:26.092Z,10.90
2022-11-04T19:40:12.836Z,10.90
2022-11-04T19:43:29.610Z,10.91
2022-11-04T19:46:20.335Z,10.90
2022-11-04T19:48:55.073Z,10.93
2022-11-04T19:51:36.742Z,10.97
2022-11-04T19:54:12.153Z,10.98
2022-11-04T19:57:11.263Z,10.98
2022-11-04T19:59:59.911Z,10.98
2022-11-04T20:02:59.223Z,11.01
2022-11-04T20:06:28.552Z,11.00
2022-11-04T20:09:21.479Z,11.01
2022-11-04T20:12:13.616Z,11.04
2022-11-04T20:15:03.819Z,11.07
2022-11-04T20:17:37.756Z,11.00
2022-11-04T20:20:10.830Z,11.03
2022-11-04T20:22:41.562Z,11.06
2022-11-04T20:28:20.923Z,11.09
2022-11-04T20:30:53.601Z,11.11
2022-11-04T20:33:29.246Z,11.14
2022-11-04T20:36:30.619Z,11.17
2022-11-04T20:39:19.074Z,11.22
2022-11-04T20:42:01.466Z,11.25
2022-11-04T20:44:44.583Z,11.26
2022-11-04T20:47:18.388Z,11.31
2022-11-04T20:49:53.417Z,11.34
2022-11-04T20:52:26.726Z,11.29
2022-11-04T20:54:57.551Z,11.34
2022-11-04T20:57:28.299Z,11.37
2022-11-04T21:00:01.578Z,11.40
2022-11-04T21:02:34.823Z,11.40
2022-11-04T21:05:19.427Z,11.39
2022-11-04T21:07:53.432Z,11.37
2022-11-04T21:10:27.144Z,11.34
2022-11-04T21:12:57.058Z,11.33
2022-11-04T21:15:43.362Z,11.32
2022-11-04T21:18:16.750Z,11.29
2022-11-04T21:20:46.875Z,11.29
2022-11-04T21:23:22.762Z,11.29
2022-11-04T21:26:04.299Z,11.28
2022-11-04T21:28:34.229Z,11.27
2022-11-04T21:31:12.682Z,11.28
2022-11-04T21:33:47.566Z,11.28
2022-11-04T21:36:34.064Z,11.28
2022-11-04T21:39:16.265Z,11.28
2022-11-04T21:42:35.335Z,11.27
2022-11-04T21:45:31.366Z,11.25
2022-11-04T21:48:23.513Z,11.26
2022-11-04T21:51:19.530Z,11.26
2022-11-04T21:54:04.075Z,11.27
2022-11-04T21:56:42.192Z,11.29
2022-11-04T21:59:32.992Z,11.31
2022-11-04T22:02:16.318Z,11.32
2022-11-04T22:05:25.262Z,11.31
2022-11-04T22:08:22.545Z,11.27
2022-11-04T22:11:06.572Z,11.25
2022-11-04T22:13:36.668Z,11.26
2022-11-04T22:16:21.830Z,11.27
2022-11-04T22:18:58.052Z,11.26
2022-11-04T22:21:28.160Z,11.17
2022-11-04T22:23:57.637Z,11.16
2022-11-04T22:26:32.167Z,11.18
2022-11-04T22:29:11.350Z,11.18
2022-11-04T22:31:42.992Z,11.19
2022-11-04T22:34:12.737Z,11.20
2022-11-04T22:36:40.806Z,11.20
2022-11-04T22:39:16.354Z,11.19
2022-11-04T22:41:48.356Z,11.17
2022-11-04T22:44:19.954Z,11.14
2022-11-04T22:46:54.804Z,11.11
2022-11-04T22:49:30.101Z,11.09
2022-11-04T22:52:00.849Z,11.11
2022-11-04T22:54:31.676Z,11.11
2022-11-04T22:57:01.671Z,11.12
2022-11-04T22:59:31.639Z,11.12
2022-11-04T23:02:01.452Z,11.12
2022-11-04T23:04:30.970Z,11.12
2022-11-04T23:07:00.471Z,11.12
2022-11-04T23:09:30.114Z,11.12
2022-11-04T23:12:18.449Z,11.11
2022-11-04T23:15:06.659Z,11.09
2022-11-04T23:17:55.128Z,11.09
2022-11-04T23:20:31.278Z,11.07
2022-11-04T23:23:19.427Z,11.07
2022-11-04T23:25:50.554Z,11.07
2022-11-04T23:28:39.119Z,11.10
2022-11-04T23:31:11.655Z,11.11
2022-11-04T23:34:00.945Z,11.15
2022-11-04T23:36:55.351Z,11.14
2022-11-04T23:39:25.061Z,11.13
2022-11-04T23:42:13.560Z,11.15
2022-11-04T23:45:02.567Z,11.15
2022-11-04T23:48:01.143Z,11.16
2022-11-04T23:50:52.975Z,11.15
2022-11-04T23:53:41.032Z,11.15
2022-11-04T23:56:30.906Z,11.14
2022-11-04T23:59:20.055Z,11.14
